createdAt,value
2023-02-27T00:01:32.792Z,96780.78
2023-02-27T00:04:01.433Z,96782.48
2023-02-27T00:06:29.369Z,96768.51
2023-02-27T00:08:57.076Z,96762.14
2023-02-27T00:11:24.972Z,96759.45
2023-02-27T00:13:52.737Z,96752.25
2023-02-27T00:16:20.627Z,96749.87
2023-02-27T00:18:48.330Z,96759.95
2023-02-27T00:21:16.408Z,96762.06
2023-02-27T00:23:44.179Z,96766.02
2023-02-27T00:26:11.741Z,96766.80
2023-02-27T00:28:39.595Z,96769.94
2023-02-27T00:31:07.379Z,96770.45
2023-02-27T00:33:35.201Z,96766.16
2023-02-27T00:36:03.274Z,96764.80
2023-02-27T00:38:31.614Z,96758.15
2023-02-27T00:40:59.564Z,96753.07
2023-02-27T00:43:27.436Z,96752.83
2023-02-27T00:45:55.341Z,96753.62
2023-02-27T00:48:22.959Z,96752.29
2023-02-27T00:50:50.920Z,96754.67
2023-02-27T00:53:18.670Z,96748.23
2023-02-27T00:55:46.593Z,96754.02
2023-02-27T00:58:17.602Z,96757.19
2023-02-27T01:00:45.610Z,96759.54
2023-02-27T01:03:13.192Z,96755.01
2023-02-27T01:05:41.575Z,96763.80
2023-02-27T01:08:09.217Z,96763.29
2023-02-27T01:10:38.331Z,96753.68
2023-02-27T01:13:07.237Z,96759.81
2023-02-27T01:15:34.843Z,96750.30
2023-02-27T01:18:03.492Z,96758.68
2023-02-27T01:20:31.097Z,96756.50
2023-02-27T01:22:58.929Z,96758.88
2023-02-27T01:25:26.682Z,96761.23
2023-02-27T01:27:55.612Z,96755.91
2023-02-27T01:30:23.621Z,96757.99
2023-02-27T01:32:51.524Z,96756.36
2023-02-27T01:35:19.347Z,96763.52
2023-02-27T01:37:47.086Z,96754.44
2023-02-27T01:40:16.060Z,96765.34
2023-02-27T01:42:46.651Z,96763.47
2023-02-27T01:45:39.536Z,96763.95
2023-02-27T01:48:28.502Z,96769.53
2023-02-27T01:51:07.703Z,96780.41
2023-02-27T01:53:38.483Z,96776.90
2023-02-27T01:56:11.467Z,96768.68
2023-02-27T01:58:40.597Z,96767.66
2023-02-27T02:01:08.475Z,96771.45
2023-02-27T02:04:01.371Z,96763.52
2023-02-27T02:06:34.821Z,96774.97
2023-02-27T02:09:05.630Z,96791.81
2023-02-27T02:11:33.509Z,96784.72
2023-02-27T02:14:03.018Z,96779.98
2023-02-27T02:17:14.434Z,96780.57
2023-02-27T02:19:59.356Z,96783.33
2023-02-27T02:22:55.797Z,96782.31
2023-02-27T02:25:58.177Z,96783.16
2023-02-27T02:29:11.962Z,96791.95
2023-02-27T02:31:45.342Z,96790.63
2023-02-27T02:34:38.367Z,96789.27
2023-02-27T02:37:43.527Z,96787.11
2023-02-27T02:40:31.917Z,96782.58
2023-02-27T02:43:11.387Z,96776.21
2023-02-27T02:45:50.642Z,96782.07
2023-02-27T02:48:29.522Z,96786.02
2023-02-27T02:51:11.387Z,96783.84
2023-02-27T02:54:09.960Z,96780.40
2023-02-27T02:57:06.208Z,96775.94
2023-02-27T02:59:59.248Z,96777.84
2023-02-27T03:02:33.095Z,96780.50
2023-02-27T03:05:11.970Z,96778.19
2023-02-27T03:07:58.963Z,96773.92
2023-02-27T03:10:45.434Z,96776.66
2023-02-27T03:13:35.433Z,96786.47
2023-02-27T03:16:29.034Z,96787.31
2023-02-27T03:19:14.837Z,96787.11
2023-02-27T03:21:57.318Z,96784.48
2023-02-27T03:24:50.652Z,96781.34
2023-02-27T03:27:22.629Z,96786.39
2023-02-27T03:30:02.145Z,96805.56
2023-02-27T03:32:57.079Z,96809.31
2023-02-27T03:35:30.734Z,96819.19
2023-02-27T03:38:25.386Z,96835.16
2023-02-27T03:41:20.291Z,96843.13
2023-02-27T03:44:07.255Z,96846.09
2023-02-27T03:46:35.423Z,96846.42
2023-02-27T03:49:04.059Z,96842.98
2023-02-27T03:51:33.105Z,96848.83
2023-02-27T03:54:17.147Z,96838.48
2023-02-27T03:56:59.413Z,96843.00
2023-02-27T03:59:29.110Z,96848.86
2023-02-27T04:01:59.366Z,96848.62
2023-02-27T04:04:31.386Z,96847.80
2023-02-27T04:07:59.633Z,96860.84
2023-02-27T04:10:48.010Z,96868.57
2023-02-27T04:13:54.519Z,96873.64
2023-02-27T04:16:50.313Z,96879.19
2023-02-27T04:19:38.674Z,96884.78
2023-02-27T04:22:35.897Z,96890.09
2023-02-27T04:25:40.770Z,96877.11
2023-02-27T04:28:16.638Z,96887.22
2023-02-27T04:30:58.648Z,96887.81
2023-02-27T04:33:45.418Z,96897.14
2023-02-27T04:36:36.704Z,96894.27
2023-02-27T04:39:14.459Z,96895.91
2023-02-27T04:41:50.280Z,96891.19
2023-02-27T04:44:20.088Z,96894.71
2023-02-27T04:46:49.788Z,96893.70
2023-02-27T04:49:28.302Z,96893.73
2023-02-27T04:52:10.525Z,96900.39
2023-02-27T04:55:01.611Z,96902.28
2023-02-27T04:57:40.789Z,96911.59
2023-02-27T05:00:13.450Z,96920.63
2023-02-27T05:02:45.412Z,96921.17
2023-02-27T05:05:21.728Z,96928.33
2023-02-27T05:07:57.124Z,96934.67
2023-02-27T05:10:36.680Z,96934.63
2023-02-27T05:13:19.033Z,96937.23
2023-02-27T05:16:12.998Z,96942.52
2023-02-27T05:18:41.076Z,96942.75
2023-02-27T05:21:31.014Z,96959.69
2023-02-27T05:24:13.419Z,96961.48
2023-02-27T05:27:03.328Z,96968.10
2023-02-27T05:29:51.620Z,96974.25
2023-02-27T05:32:55.953Z,96970.61
2023-02-27T05:35:34.381Z,96970.70
2023-02-27T05:38:13.557Z,96978.02
2023-02-27T05:40:57.723Z,96987.17
2023-02-27T05:43:35.854Z,96994.69
2023-02-27T05:46:11.606Z,97003.27
2023-02-27T05:48:44.812Z,97002.01
2023-02-27T05:51:14.819Z,97008.41
2023-02-27T05:53:48.036Z,97010.05
2023-02-27T05:56:19.668Z,97014.03
2023-02-27T05:58:55.413Z,97015.13
2023-02-27T06:01:24.086Z,97010.36
2023-02-27T06:03:51.772Z,97001.09
2023-02-27T06:06:20.135Z,97009.58
2023-02-27T06:08:47.979Z,97013.02
2023-02-27T06:11:17.309Z,97011.70
2023-02-27T06:13:44.938Z,97008.00
2023-02-27T06:16:14.791Z,97017.54
2023-02-27T06:18:42.745Z,97018.60
2023-02-27T06:21:12.878Z,97024.66
2023-02-27T06:23:40.790Z,97042.67
2023-02-27T06:26:10.533Z,97046.09
2023-02-27T06:28:38.655Z,97054.30
2023-02-27T06:31:06.704Z,97055.38
2023-02-27T06:33:34.949Z,97061.22
2023-02-27T06:36:03.007Z,97070.50
2023-02-27T06:38:31.124Z,97081.61
2023-02-27T06:40:58.726Z,97078.95
2023-02-27T06:43:26.477Z,97077.32
2023-02-27T06:45:54.765Z,97092.43
2023-02-27T06:48:22.513Z,97097.44
2023-02-27T06:50:55.881Z,97097.63
2023-02-27T06:53:25.110Z,97113.30
2023-02-27T06:55:53.004Z,97104.53
2023-02-27T06:58:20.834Z,97113.52
2023-02-27T07:00:48.669Z,97112.44
2023-02-27T07:03:16.360Z,97120.11
2023-02-27T07:05:44.912Z,97127.81
2023-02-27T07:08:12.898Z,97123.54
2023-02-27T07:10:42.546Z,97129.88
2023-02-27T07:13:10.461Z,97134.14
2023-02-27T07:15:38.290Z,97142.61
2023-02-27T07:18:06.289Z,97141.03
2023-02-27T07:20:34.086Z,97144.47
2023-02-27T07:23:01.982Z,97144.20
2023-02-27T07:25:29.721Z,97140.19
2023-02-27T07:27:57.270Z,97150.55
2023-02-27T07:30:24.976Z,97157.43
2023-02-27T07:32:52.723Z,97162.73
2023-02-27T07:35:20.288Z,97165.87
2023-02-27T07:37:48.199Z,97172.26
2023-02-27T07:40:16.217Z,97178.06
2023-02-27T07:42:43.886Z,97178.59
2023-02-27T07:45:11.828Z,97179.63
2023-02-27T07:47:39.114Z,97186.51
2023-02-27T07:50:07.655Z,97187.28
2023-02-27T07:52:35.297Z,97194.95
2023-02-27T07:55:03.155Z,97194.94
2023-02-27T07:57:31.190Z,97196.25
2023-02-27T07:59:58.711Z,97209.77
2023-02-27T08:02:26.769Z,97210.25
2023-02-27T08:04:54.511Z,97210.53
2023-02-27T08:07:24.757Z,97216.63
2023-02-27T08:09:52.489Z,97233.86
2023-02-27T08:12:20.074Z,97228.30
2023-02-27T08:14:48.197Z,97233.36
2023-02-27T08:17:16.050Z,97241.87
2023-02-27T08:19:44.031Z,97243.69
2023-02-27T08:22:15.696Z,97239.17
2023-02-27T08:24:44.167Z,97244.22
2023-02-27T08:27:11.999Z,97254.02
2023-02-27T08:29:39.872Z,97255.88
2023-02-27T08:32:07.702Z,97261.44
2023-02-27T08:34:43.814Z,97268.36
2023-02-27T08:37:12.456Z,97270.19
2023-02-27T08:39:40.431Z,97282.98
2023-02-27T08:42:08.726Z,97286.17
2023-02-27T08:44:36.886Z,97290.41
2023-02-27T08:47:04.747Z,97300.78
2023-02-27T08:49:32.619Z,97308.52
2023-02-27T08:52:00.778Z,97310.66
2023-02-27T08:54:28.525Z,97311.19
2023-02-27T08:56:56.329Z,97320.48
2023-02-27T08:59:24.389Z,97327.91
2023-02-27T09:01:52.021Z,97336.70
2023-02-27T09:04:20.502Z,97336.71
2023-02-27T09:06:48.153Z,97343.10
2023-02-27T09:09:15.866Z,97349.46
2023-02-27T09:11:45.668Z,97353.73
2023-02-27T09:14:13.296Z,97360.42
2023-02-27T09:16:40.996Z,97369.19
2023-02-27T09:19:08.814Z,97370.80
2023-02-27T09:21:36.908Z,97378.27
2023-02-27T09:24:18.668Z,97383.61
2023-02-27T09:26:44.287Z,97389.21
2023-02-27T09:29:05.213Z,97391.39
2023-02-27T09:31:33.998Z,97402.26
2023-02-27T09:34:01.840Z,97399.09
2023-02-27T09:36:30.061Z,97400.14
2023-02-27T09:38:59.325Z,97404.09
2023-02-27T09:41:40.905Z,97410.45
2023-02-27T09:44:45.172Z,97422.11
2023-02-27T09:47:04.692Z,97414.97
2023-02-27T09:49:40.760Z,97419.48
2023-02-27T09:52:12.919Z,97418.16
2023-02-27T09:54:42.541Z,97418.95
2023-02-27T09:57:15.628Z,97421.34
2023-02-27T10:00:00.813Z,97419.73
2023-02-27T10:02:46.675Z,97426.63
2023-02-27T10:05:55.528Z,97433.80
2023-02-27T10:08:31.604Z,97436.42
2023-02-27T10:11:09.013Z,97445.44
2023-02-27T10:14:00.302Z,97456.56
2023-02-27T10:16:29.980Z,97451.79
2023-02-27T10:19:08.301Z,97452.05
2023-02-27T10:21:44.638Z,97450.17
2023-02-27T10:24:42.240Z,97447.23
2023-02-27T10:27:20.726Z,97453.84
2023-02-27T10:29:57.801Z,97446.11
2023-02-27T10:32:32.489Z,97457.53
2023-02-27T10:35:36.324Z,97455.67
2023-02-27T10:38:21.897Z,97451.19
2023-02-27T10:41:13.294Z,97453.88
2023-02-27T10:43:41.959Z,97454.70
2023-02-27T10:46:32.421Z,97452.08
2023-02-27T10:49:06.865Z,97460.06
2023-02-27T10:51:36.673Z,97472.83
2023-02-27T10:54:23.015Z,97475.76
2023-02-27T10:56:56.243Z,97473.64
2023-02-27T10:59:35.235Z,97479.46
2023-02-27T11:02:22.765Z,97480.25
2023-02-27T11:04:59.270Z,97476.53
2023-02-27T11:07:37.354Z,97481.05
2023-02-27T11:10:19.944Z,97486.62
2023-02-27T11:13:07.971Z,97491.11
2023-02-27T11:15:38.394Z,97490.86
2023-02-27T11:18:28.813Z,97497.49
2023-02-27T11:21:28.590Z,97501.22
2023-02-27T11:24:19.502Z,97507.88
2023-02-27T11:26:58.707Z,97511.83
2023-02-27T11:29:27.988Z,97520.59
2023-02-27T11:32:06.689Z,97522.72
2023-02-27T11:34:39.620Z,97518.20
2023-02-27T11:37:36.803Z,97526.42
2023-02-27T11:40:15.155Z,97528.27
2023-02-27T11:42:48.135Z,97534.91
2023-02-27T11:46:04.919Z,97536.26
2023-02-27T11:48:19.454Z,97548.71
2023-02-27T11:51:45.820Z,97549.53
2023-02-27T11:54:29.521Z,97552.16
2023-02-27T11:57:15.383Z,97557.75
2023-02-27T11:59:57.901Z,97569.70
2023-02-27T12:02:50.903Z,97578.74
2023-02-27T12:05:41.900Z,97569.95
2023-02-27T12:08:21.207Z,97578.72
2023-02-27T12:11:26.166Z,97582.96
2023-02-27T12:14:26.916Z,97584.83
2023-02-27T12:16:59.484Z,97593.61
2023-02-27T12:19:41.925Z,97598.64
2023-02-27T12:22:15.581Z,97597.59
2023-02-27T12:24:53.416Z,97600.51
2023-02-27T12:27:26.106Z,97607.91
2023-02-27T12:30:09.266Z,97605.52
2023-02-27T12:32:50.288Z,97611.91
2023-02-27T12:35:34.385Z,97615.87
2023-02-27T12:38:05.668Z,97618.00
2023-02-27T12:40:42.008Z,97629.96
2023-02-27T12:43:21.095Z,97632.34
2023-02-27T12:46:24.642Z,97636.86
2023-02-27T12:49:27.393Z,97644.83
2023-02-27T12:52:12.695Z,97650.42
2023-02-27T12:55:11.948Z,97646.69
2023-02-27T12:58:15.781Z,97654.65
2023-02-27T13:01:00.397Z,97654.94
2023-02-27T13:03:42.893Z,97660.52
2023-02-27T13:06:25.305Z,97669.80
2023-02-27T13:09:15.367Z,97672.20
2023-02-27T13:12:08.053Z,97676.72
2023-02-27T13:14:49.913Z,97684.41
2023-02-27T13:17:41.474Z,97679.36
2023-02-27T13:20:31.665Z,97683.09
2023-02-27T13:23:25.473Z,97688.68
2023-02-27T13:25:56.707Z,97689.47
2023-02-27T13:28:27.752Z,97691.59
2023-02-27T13:31:31.476Z,97697.42
2023-02-27T13:34:29.064Z,97701.41
2023-02-27T13:37:05.223Z,97702.73
2023-02-27T13:39:52.121Z,97708.85
2023-02-27T13:42:32.794Z,97714.42
2023-02-27T13:45:04.741Z,97712.31
2023-02-27T13:47:42.978Z,97712.83
2023-02-27T13:50:28.068Z,97716.02
2023-02-27T13:53:01.308Z,97724.52
2023-02-27T13:55:34.402Z,97720.55
2023-02-27T13:58:03.998Z,97728.23
2023-02-27T14:00:38.490Z,97724.27
2023-02-27T14:03:26.069Z,97728.80
2023-02-27T14:05:58.367Z,97726.93
2023-02-27T14:08:30.180Z,97728.77
2023-02-27T14:11:03.690Z,97729.57
2023-02-27T14:13:57.169Z,97731.16
2023-02-27T14:16:48.445Z,97731.95
2023-02-27T14:19:24.459Z,97733.83
2023-02-27T14:22:18.987Z,97737.00
2023-02-27T14:25:02.907Z,97744.98
2023-02-27T14:27:56.598Z,97742.86
2023-02-27T14:30:55.085Z,97751.89
2023-02-27T14:33:40.216Z,97749.23
2023-02-27T14:36:06.179Z,97756.41
2023-02-27T14:38:36.878Z,97765.73
2023-02-27T14:41:34.318Z,97761.46
2023-02-27T14:44:02.518Z,97765.45
2023-02-27T14:46:37.553Z,97775.80
2023-02-27T14:49:22.749Z,97779.26
2023-02-27T14:51:53.297Z,97781.39
2023-02-27T14:54:27.308Z,97786.45
2023-02-27T14:56:59.351Z,97793.08
2023-02-27T14:59:33.380Z,97800.27
2023-02-27T15:02:05.434Z,97801.34
2023-02-27T15:04:33.551Z,97804.25
2023-02-27T15:07:01.443Z,97802.64
2023-02-27T15:09:44.369Z,97805.84
2023-02-27T15:12:19.071Z,97810.09
2023-02-27T15:14:59.610Z,97825.25
2023-02-27T15:17:40.809Z,97819.67
2023-02-27T15:20:29.514Z,97825.53
2023-02-27T15:23:01.365Z,97826.86
2023-02-27T15:25:38.408Z,97833.77
2023-02-27T15:28:11.856Z,97840.42
2023-02-27T15:30:39.696Z,97848.66
2023-02-27T15:33:12.575Z,97854.50
2023-02-27T15:35:45.052Z,97853.69
2023-02-27T15:38:33.115Z,97861.41
2023-02-27T15:41:03.672Z,97861.16
2023-02-27T15:43:34.152Z,97864.05
2023-02-27T15:46:02.139Z,97865.94
2023-02-27T15:48:33.464Z,97869.38
2023-02-27T15:51:03.810Z,97874.97
2023-02-27T15:53:33.421Z,97875.21
2023-02-27T15:56:06.303Z,97882.39
2023-02-27T15:58:37.725Z,97879.74
2023-02-27T16:01:14.107Z,97878.92
2023-02-27T16:03:46.528Z,97889.05
2023-02-27T16:06:32.885Z,97892.74
2023-02-27T16:09:05.327Z,97897.00
2023-02-27T16:11:40.660Z,97898.59
2023-02-27T16:14:40.594Z,97904.45
2023-02-27T16:17:33.308Z,97913.98
2023-02-27T16:20:08.058Z,97921.70
2023-02-27T16:22:35.980Z,97925.16
2023-02-27T16:25:13.091Z,97930.20
2023-02-27T16:27:45.578Z,97923.00
2023-02-27T16:30:15.846Z,97929.38
2023-02-27T16:32:43.780Z,97934.98
2023-02-27T16:35:21.606Z,97933.92
2023-02-27T16:37:53.204Z,97943.20
2023-02-27T16:40:25.465Z,97941.36
2023-02-27T16:42:53.789Z,97947.98
2023-02-27T16:45:28.031Z,97955.14
2023-02-27T16:48:00.101Z,97963.38
2023-02-27T16:50:36.227Z,97961.27
2023-02-27T16:53:04.340Z,97972.39
2023-02-27T16:55:33.828Z,97976.09
2023-02-27T16:58:02.130Z,97983.27
2023-02-27T17:00:30.311Z,97985.94
2023-02-27T17:02:58.679Z,97994.16
2023-02-27T17:05:26.430Z,98001.06
2023-02-27T17:07:54.178Z,98001.30
2023-02-27T17:10:24.028Z,98001.05
2023-02-27T17:12:52.315Z,97998.90
2023-02-27T17:15:20.742Z,97999.39
2023-02-27T17:17:48.570Z,98002.30
2023-02-27T17:20:17.637Z,98003.08
2023-02-27T17:22:45.449Z,98001.99
2023-02-27T17:25:14.709Z,97997.97
2023-02-27T17:27:43.862Z,97998.21
2023-02-27T17:30:14.294Z,98010.43
2023-02-27T17:32:45.047Z,98004.03
2023-02-27T17:35:12.988Z,98005.86
2023-02-27T17:37:40.716Z,98011.17
2023-02-27T17:40:11.702Z,98016.22
2023-02-27T17:42:40.039Z,98020.20
2023-02-27T17:45:10.086Z,98017.02
2023-02-27T17:47:37.902Z,98017.52
2023-02-27T17:50:06.373Z,98016.73
2023-02-27T17:52:39.063Z,98031.86
2023-02-27T17:55:08.196Z,98039.56
2023-02-27T17:57:36.864Z,98039.56
2023-02-27T18:00:12.682Z,98034.48
2023-02-27T18:02:41.187Z,98039.30
2023-02-27T18:05:09.122Z,98043.80
2023-02-27T18:07:36.961Z,98039.29
2023-02-27T18:10:08.399Z,98025.78
2023-02-27T18:12:36.800Z,98028.67
2023-02-27T18:15:07.220Z,98044.06
2023-02-27T18:17:34.920Z,98044.36
2023-02-27T18:20:04.799Z,98042.50
2023-02-27T18:22:38.602Z,98051.00
2023-02-27T18:25:11.518Z,98060.02
2023-02-27T18:27:39.544Z,98059.49
2023-02-27T18:30:12.002Z,98057.91
2023-02-27T18:32:51.084Z,98060.83
2023-02-27T18:35:20.874Z,98065.58
2023-02-27T18:37:48.421Z,98074.59
2023-02-27T18:40:16.542Z,98054.16
2023-02-27T18:42:48.056Z,98060.53
2023-02-27T18:45:16.495Z,98069.00
2023-02-27T18:47:47.291Z,98073.52
2023-02-27T18:50:15.759Z,98076.16
2023-02-27T18:52:50.800Z,98076.16
2023-02-27T18:55:20.092Z,98077.22
2023-02-27T18:57:55.151Z,98076.16
2023-02-27T19:00:25.826Z,98074.04
2023-02-27T19:02:53.343Z,98080.14
2023-02-27T19:05:21.309Z,98083.09
2023-02-27T19:07:49.455Z,98084.42
2023-02-27T19:10:18.098Z,98093.95
2023-02-27T19:12:51.031Z,98091.03
2023-02-27T19:15:18.966Z,98093.92
2023-02-27T19:17:46.639Z,98091.00
2023-02-27T19:20:20.356Z,98089.14
2023-02-27T19:22:49.686Z,98086.72
2023-02-27T19:25:17.590Z,98088.84
2023-02-27T19:27:46.341Z,98092.33
2023-02-27T19:30:15.777Z,98100.05
2023-02-27T19:32:48.594Z,98096.61
2023-02-27T19:35:16.658Z,98091.30
2023-02-27T19:37:48.363Z,98096.58
2023-02-27T19:40:16.564Z,98099.23
2023-02-27T19:42:44.231Z,98096.58
2023-02-27T19:45:12.042Z,98096.61
2023-02-27T19:47:49.024Z,98098.46
2023-02-27T19:50:20.289Z,98098.20
2023-02-27T19:52:53.548Z,98109.91
2023-02-27T19:55:22.116Z,98105.66
2023-02-27T19:57:50.104Z,98108.31
2023-02-27T20:00:22.136Z,98115.22
2023-02-27T20:02:57.392Z,98119.99
2023-02-27T20:05:32.148Z,98117.90
2023-02-27T20:08:00.569Z,98127.19
2023-02-27T20:10:30.174Z,98128.75
2023-02-27T20:12:59.873Z,98131.94
2023-02-27T20:15:28.372Z,98133.27
2023-02-27T20:17:56.688Z,98137.25
2023-02-27T20:20:24.524Z,98145.18
2023-02-27T20:22:52.988Z,98138.28
2023-02-27T20:25:21.928Z,98132.97
2023-02-27T20:27:50.504Z,98132.44
2023-02-27T20:30:20.735Z,98134.03
2023-02-27T20:32:49.115Z,98137.52
2023-02-27T20:35:17.165Z,98137.52
2023-02-27T20:37:44.984Z,98134.33
2023-02-27T20:40:13.504Z,98138.58
2023-02-27T20:42:41.610Z,98132.20
2023-02-27T20:45:10.207Z,98133.30
2023-02-27T20:47:38.518Z,98143.41
2023-02-27T20:50:07.877Z,98139.14
2023-02-27T20:52:35.889Z,98115.69
2023-02-27T20:55:05.066Z,98136.22
2023-02-27T20:57:33.089Z,98138.34
2023-02-27T21:00:01.266Z,98134.63
2023-02-27T21:02:29.280Z,98141.27
2023-02-27T21:04:57.879Z,98139.44
2023-02-27T21:07:26.233Z,98132.80
2023-02-27T21:09:53.919Z,98137.28
2023-02-27T21:12:22.009Z,98139.70
2023-02-27T21:14:49.946Z,98138.38
2023-02-27T21:17:18.176Z,98134.92
2023-02-27T21:19:46.328Z,98138.11
2023-02-27T21:22:15.786Z,98136.25
2023-02-27T21:24:43.862Z,98135.19
2023-02-27T21:27:11.703Z,98130.64
2023-02-27T21:29:39.898Z,98135.95
2023-02-27T21:32:07.893Z,98129.02
2023-02-27T21:34:35.936Z,98132.20
2023-02-27T21:37:05.911Z,98129.02
2023-02-27T21:39:35.355Z,98133.53
2023-02-27T21:42:06.167Z,98130.61
2023-02-27T21:44:34.162Z,98131.94
2023-02-27T21:47:03.972Z,98135.92
2023-02-27T21:49:32.003Z,98142.55
2023-02-27T21:51:59.915Z,98148.40
2023-02-27T21:54:28.162Z,98149.76
2023-02-27T21:56:57.752Z,98157.45
2023-02-27T21:59:25.605Z,98158.78
2023-02-27T22:01:53.612Z,98162.00
2023-02-27T22:04:22.041Z,98166.25
2023-02-27T22:06:52.631Z,98167.31
2023-02-27T22:09:22.290Z,98176.37
2023-02-27T22:11:50.364Z,98161.77
2023-02-27T22:14:18.275Z,98166.58
2023-02-27T22:16:46.692Z,98171.63
2023-02-27T22:19:22.104Z,98170.03
2023-02-27T22:21:50.068Z,98158.91
2023-02-27T22:24:18.002Z,98148.78
2023-02-27T22:26:47.188Z,98147.98
2023-02-27T22:29:16.732Z,98157.81
2023-02-27T22:31:44.561Z,98150.64
2023-02-27T22:34:17.860Z,98159.67
2023-02-27T22:36:48.597Z,98162.06
2023-02-27T22:39:16.312Z,98171.65
2023-02-27T22:41:45.545Z,98171.39
2023-02-27T22:44:16.026Z,98184.69
2023-02-27T22:46:48.075Z,98188.94
2023-02-27T22:49:22.623Z,98190.80
2023-02-27T22:51:51.905Z,98191.86
2023-02-27T22:54:22.453Z,98193.16
2023-02-27T22:56:52.618Z,98192.89
2023-02-27T22:59:21.060Z,98198.73
2023-02-27T23:01:51.002Z,98208.30
2023-02-27T23:04:21.456Z,98210.42
2023-02-27T23:06:52.477Z,98211.75
2023-02-27T23:09:22.166Z,98213.08
2023-02-27T23:11:50.167Z,98212.55
2023-02-27T23:14:20.863Z,98215.70
2023-02-27T23:16:48.678Z,98222.33
2023-02-27T23:19:20.042Z,98224.69
2023-02-27T23:21:48.067Z,98230.56
2023-02-27T23:24:18.716Z,98231.63
2023-02-27T23:26:50.143Z,98227.64
2023-02-27T23:29:19.034Z,98220.98
2023-02-27T23:31:47.453Z,98219.64
2023-02-27T23:34:15.958Z,98218.31
2023-02-27T23:36:43.727Z,98217.79
2023-02-27T23:39:11.165Z,98211.12
2023-02-27T23:41:38.987Z,98217.75
2023-02-27T23:44:06.916Z,98216.16
2023-02-27T23:46:34.378Z,98215.59
2023-02-27T23:49:02.554Z,98213.73
2023-02-27T23:51:31.096Z,98224.09
2023-02-27T23:53:59.669Z,98223.03
2023-02-27T23:56:30.488Z,98219.58
2023-02-27T23:59:04.774Z,98219.81
